Airfield :
LOGIN :

Register | Disclaimer

   EN    FR    IT 

 










Legend :    VFR   Marginal VFR   IFR   Intensive IFR   Very Intensive IFR
Visi :
Ceiling :
>= 8 km
>= 3000ft
5 to 8 km
1000 to 3000 ft
1500m to 5 km
500 to 1000 ft
800 to 1500m
200 to 500 ft
< 800m
< 200 ft
Symbols :   Thunderstorms  Fog  Heavy snow  Heavy precipitations  Wind > 20 kt
SIGMETs :     Misc.  Thunderstorms  Icing  Turbulence  Mountain Waves  Volcanic Ashes






- Airport Elevation : 1079 ft


ETIK - Illesheim Air Base

CURRENT METAR :
  • 281856Z AUTO 05008KT 9999 FEW080 14/02 A3036 RMK AO2 SLP281 T01420018 $

EXPIRED METARs :
  • 281756Z AUTO 04009KT 9999 FEW080 17/02 A3035 RMK AO2 SLP276 T01710019 10198 20169 55002 $
  • 281656Z AUTO 04009KT 9999 BKN075 19/02 A3034 RMK AO2 SLP273 T01880022

TAF TAF ETIK
Valid from the 28 at 15:00 until the 29 at 21:00 UTC


281508Z 2815/2921 02012KT 9999 FEW070 QNH3032INS
BECMG 2820/2821 VRB06KT 9999 FEW050 BKN060 QNH3034INS
BECMG 2908/2909 06012KT 8000 -SHRA BKN040 QNH3031INS
TEMPO 2912/2916 06012G18KT
BECMG 2915/2916 06009KT 9999 NSW BKN060 QNH3027INS TX20/2914Z TN06/2904Z



MET'MAP, your aeronautical weather chart ! - Copyright ORBIFLY December 2007 - Disclaimer

ORBIFLY MET'MAP TEAM :

Programming & Development : Alexandra Zaïnal
Concept & original design : Baudouin d'Aumeries
Assistance for programming : Marc-Olivier Méhu
Technical & hardware support : Manuel Goepfert

Contact : metmap@orbifly.com




SOURCES & CREDITS :

   NOAA